Flight Track Log - Related Links

Times and Time Zones

All times are in EDT time to prevent confusion due to time zone crossing. See the EMD21 flight status page for this flight to view local times or setup timezone preferences in your user account.

Time Position Orientation Groundspeed Altitude Reporting Facility
EDT Latitude Longitude Course Direction KTS MPH feet Rate Location/Type
Thu 05:24:38 PM 32.8667 -96.8500 320° Northwest 130 150 1,100  Level Dallas / Fort Worth TRACON
Thu 05:25:02 PM 32.8833 -96.8667 320° Northwest 131 151 1,700 1,071 Climbing Dallas / Fort Worth TRACON
Thu 05:26:02 PM 32.9167 -96.8833 337° Northwest 161 185 2,600 650 Climbing Dallas / Fort Worth TRACON
Thu 05:27:02 PM 32.9667 -96.9000 344° North 177 204 3,000 200 Climbing Dallas / Fort Worth TRACON
Thu 05:28:02 PM 33.0167 -96.9000 360° North 202 232 3,000 290 Level Dallas / Fort Worth TRACON
Thu 05:30:29 PM 33.1433 -96.8775 North 193 222 4,000 638 Climbing Fort Worth Center
Thu 05:31:29 PM 33.1850 -96.8697 North 166 191 5,200 1,000 Climbing Fort Worth Center
Thu 05:32:29 PM 33.2331 -96.8597 10° North 165 190 6,000 450 Climbing Fort Worth Center
Thu 05:33:29 PM 33.2789 -96.8469 13° North 176 203 6,100 300 Climbing Fort Worth Center
Thu 05:34:29 PM 33.3392 -96.8317 12° North 196 226 6,600 650 Climbing Fort Worth Center
Thu 05:35:29 PM 33.3808 -96.8164 17° North 187 215 7,400 700 Climbing Fort Worth Center
Thu 05:36:29 PM 33.4289 -96.7739 36° Northeast 183 211 8,000 650 Climbing Fort Worth Center
Thu 05:37:29 PM 33.4661 -96.7486 30° Northeast 183 211 8,700 700 Climbing Fort Worth Center
Thu 05:38:29 PM 33.5139 -96.7083 35° Northeast 188 216 9,400 650 Climbing Fort Worth Center
Thu 05:39:29 PM 33.5556 -96.6831 27° Northeast 188 216 10,000 600 Climbing Fort Worth Center
Thu 05:40:29 PM 33.6075 -96.6478 29° Northeast 188 216 10,600 500 Climbing Fort Worth Center
Thu 05:41:29 PM 33.6511 -96.6175 30° Northeast 188 216 11,000 200 Climbing Fort Worth Center
Thu 05:42:29 PM 33.7011 -96.5819 31° Northeast 199 229 11,000  Level Fort Worth Center
Thu 05:43:29 PM 33.7572 -96.5342 35° Northeast 215 247 11,000  Level Fort Worth Center
Thu 05:44:29 PM 33.8069 -96.5086 23° Northeast 220 253 11,000  Level Fort Worth Center
Thu 05:45:29 PM 33.8631 -96.4631 34° Northeast 220 253 11,000  Level Fort Worth Center
Thu 05:46:29 PM 33.9192 -96.4272 28° Northeast 220 253 11,000  Level Fort Worth Center
Thu 05:47:29 PM 33.9731 -96.3942 27° Northeast 220 253 11,000  Level Fort Worth Center
Thu 05:48:29 PM 34.0228 -96.3508 36° Northeast 220 253 11,000  Level Fort Worth Center
Thu 05:49:29 PM 34.0769 -96.3253 21° North 215 247 11,000  Level Fort Worth Center
Thu 05:50:29 PM 34.1267 -96.2869 33° Northeast 210 242 11,000  Level Fort Worth Center
Thu 05:51:29 PM 34.1806 -96.2511 29° Northeast 210 242 11,000  Level Fort Worth Center
Thu 05:52:29 PM 34.2281 -96.2078 37° Northeast 210 242 11,000 -250 Level Fort Worth Center
Thu 05:53:29 PM 34.2650 -96.1469 54° Northeast 210 242 10,500 -800 Descending Fort Worth Center
Thu 05:54:29 PM 34.3189 -96.0958 38° Northeast 224 258 9,400 -950 Descending Fort Worth Center
Thu 05:55:29 PM 34.3808 -96.0522 30° Northeast 239 275 8,600 -650 Descending Fort Worth Center
Thu 05:56:29 PM 34.4283 -95.9961 44° Northeast 244 281 8,100 -850 Descending Fort Worth Center
Thu 05:57:29 PM 34.4736 -95.9422 44° Northeast 231 266 6,900 -1,050 Descending Fort Worth Center
Thu 05:58:29 PM 34.5253 -95.9011 33° Northeast 231 266 6,000 -900 Descending Fort Worth Center
Thu 05:59:29 PM 34.5811 -95.8750 21° North 218 251 5,100 -1,000 Descending Fort Worth Center
Thu 06:00:29 PM 34.6419 -95.8839 353° North 201 231 4,000 -1,100 Descending Fort Worth Center

Login

Don't have an account? Register now (free) for customized features, flight alerts, and more!